createdAt,value
2017-07-22T00:00:49.272Z,19.1
2017-07-22T00:01:48.355Z,19.1
2017-07-22T00:02:48.061Z,19
2017-07-22T00:03:47.144Z,19.1
2017-07-22T00:04:46.355Z,19.1
2017-07-22T00:05:46.063Z,19.1
2017-07-22T00:06:45.268Z,19.1
2017-07-22T00:07:44.461Z,19.1
2017-07-22T00:08:44.164Z,19.1
2017-07-22T00:09:43.382Z,19.1
2017-07-22T00:10:42.605Z,19
2017-07-22T00:11:41.810Z,19
2017-07-22T00:12:41.518Z,19
2017-07-22T00:13:40.478Z,19.1
2017-07-22T00:14:40.072Z,19
2017-07-22T00:15:39.265Z,19
2017-07-22T00:16:38.849Z,19
2017-07-22T00:17:09.367Z,19
2017-07-22T00:18:37.249Z,19
2017-07-22T00:19:36.713Z,19
2017-07-22T00:20:35.912Z,19
2017-07-22T00:22:34.765Z,18.9
2017-07-22T00:23:33.972Z,18.9
2017-07-22T00:25:33.079Z,18.9
2017-07-22T00:26:32.178Z,18.9
2017-07-22T00:27:02.698Z,18.9
2017-07-22T00:27:33.219Z,18.9
2017-07-22T00:28:03.722Z,18.9
2017-07-22T00:28:34.247Z,18.9
2017-07-22T00:29:04.755Z,18.9
2017-07-22T00:29:35.435Z,18.9
2017-07-22T00:30:05.833Z,18.9
2017-07-22T00:31:29.081Z,18.8
2017-07-22T00:32:28.173Z,18.8
2017-07-22T00:33:27.384Z,18.8
2017-07-22T00:34:26.967Z,18.8
2017-07-22T00:35:26.174Z,18.8
2017-07-22T00:36:25.755Z,18.7
2017-07-22T00:37:25.221Z,18.7
2017-07-22T00:38:24.410Z,18.7
2017-07-22T00:38:54.960Z,18.7
2017-07-22T00:39:25.458Z,18.8
2017-07-22T00:39:55.949Z,18.8
2017-07-22T00:40:26.457Z,18.7
2017-07-22T00:40:56.851Z,18.7
2017-07-22T00:42:21.716Z,18.7
2017-07-22T00:43:20.922Z,18.7
2017-07-22T00:44:20.496Z,18.7
2017-07-22T00:45:19.695Z,18.7
2017-07-22T00:46:18.886Z,18.7
2017-07-22T00:47:18.591Z,18.7
2017-07-22T00:48:17.828Z,18.7
2017-07-22T00:49:17.033Z,18.7
2017-07-22T00:50:16.614Z,18.7
2017-07-22T00:51:15.820Z,18.6
2017-07-22T00:52:15.025Z,18.6
2017-07-22T00:53:14.216Z,18.6
2017-07-22T00:54:13.798Z,18.6
2017-07-22T00:55:13.394Z,18.6
2017-07-22T00:56:12.478Z,18.6
2017-07-22T00:57:11.683Z,18.6
2017-07-22T00:57:42.209Z,18.6
2017-07-22T00:58:12.595Z,18.6
2017-07-22T00:58:43.103Z,18.6
2017-07-22T01:00:09.975Z,18.6
2017-07-22T01:01:09.171Z,18.6
2017-07-22T01:02:08.384Z,18.6
2017-07-22T01:03:07.973Z,18.6
2017-07-22T01:04:07.171Z,18.6
2017-07-22T01:05:06.628Z,18.6
2017-07-22T01:06:05.838Z,18.6
2017-07-22T01:07:05.203Z,18.6
2017-07-22T01:08:04.397Z,18.6
2017-07-22T01:08:34.795Z,18.6
2017-07-22T01:09:05.309Z,18.6
2017-07-22T01:09:35.813Z,18.6
2017-07-22T01:10:06.321Z,18.6
2017-07-22T01:10:36.604Z,18.6
2017-07-22T01:11:07.030Z,18.6
2017-07-22T01:11:37.565Z,18.6
2017-07-22T01:13:01.307Z,18.6
2017-07-22T01:14:00.393Z,18.5
2017-07-22T01:15:00.102Z,18.6
2017-07-22T01:15:59.177Z,18.6
2017-07-22T01:16:58.654Z,18.6
2017-07-22T01:17:57.748Z,18.6
2017-07-22T01:18:57.459Z,18.6
2017-07-22T01:19:56.696Z,18.6
2017-07-22T01:20:27.197Z,18.6
2017-07-22T01:20:57.585Z,18.6
2017-07-22T01:21:28.088Z,18.6
2017-07-22T01:21:58.472Z,18.6
2017-07-22T01:22:29.000Z,18.6
2017-07-22T01:22:59.509Z,18.7
2017-07-22T01:23:54.062Z,18.7
2017-07-22T01:24:53.203Z,18.7
2017-07-22T01:25:52.904Z,18.7
2017-07-22T01:26:52.116Z,18.8
2017-07-22T01:27:51.304Z,18.8
2017-07-22T01:28:50.513Z,18.8
2017-07-22T01:29:50.217Z,18.8
2017-07-22T01:30:49.412Z,18.8
2017-07-22T01:31:48.607Z,18.8
2017-07-22T01:32:48.309Z,18.8
2017-07-22T01:33:47.517Z,18.8
2017-07-22T01:34:46.731Z,18.8
2017-07-22T01:35:45.945Z,18.8
2017-07-22T01:36:45.536Z,18.8
2017-07-22T01:37:44.734Z,18.8
2017-07-22T01:38:44.314Z,18.8
2017-07-22T01:39:43.509Z,18.8
2017-07-22T01:40:42.715Z,18.8
2017-07-22T01:41:41.804Z,18.8
2017-07-22T01:42:41.395Z,18.8
2017-07-22T01:43:40.986Z,18.8
2017-07-22T01:44:40.071Z,18.8
2017-07-22T01:45:39.275Z,18.8
2017-07-22T01:46:38.845Z,18.8
2017-07-22T01:47:38.773Z,18.8
2017-07-22T01:48:37.344Z,18.8
2017-07-22T01:49:37.054Z,18.8
2017-07-22T01:50:36.247Z,18.8
2017-07-22T01:51:35.333Z,18.8
2017-07-22T01:52:34.908Z,18.8
2017-07-22T01:53:34.103Z,18.7
2017-07-22T01:54:33.812Z,18.7
2017-07-22T01:55:33.011Z,18.7
2017-07-22T01:56:32.087Z,18.7
2017-07-22T01:57:31.802Z,18.7
2017-07-22T01:58:30.901Z,18.7
2017-07-22T01:59:30.099Z,18.7
2017-07-22T02:00:29.682Z,18.7
2017-07-22T02:01:28.765Z,18.7
2017-07-22T02:02:28.239Z,18.7
2017-07-22T02:03:27.445Z,18.7
2017-07-22T02:04:27.152Z,18.7
2017-07-22T02:05:26.373Z,18.7
2017-07-22T02:06:25.575Z,18.7
2017-07-22T02:06:55.852Z,18.7
2017-07-22T02:07:26.367Z,18.7
2017-07-22T02:07:56.875Z,18.7
2017-07-22T02:09:23.761Z,18.7
2017-07-22T02:10:22.965Z,18.7
2017-07-22T02:11:22.552Z,18.7
2017-07-22T02:12:21.762Z,18.7
2017-07-22T02:13:20.836Z,18.7
2017-07-22T02:14:20.527Z,18.7
2017-07-22T02:15:19.725Z,18.6
2017-07-22T02:16:18.693Z,18.7
2017-07-22T02:16:49.219Z,18.7
2017-07-22T02:17:19.765Z,18.7
2017-07-22T02:17:50.285Z,18.7
2017-07-22T02:18:20.803Z,18.6
2017-07-22T02:18:51.211Z,18.6
2017-07-22T02:20:16.343Z,18.6
2017-07-22T02:21:15.929Z,18.6
2017-07-22T02:22:15.146Z,18.6
2017-07-22T02:23:14.222Z,18.7
2017-07-22T02:24:13.806Z,18.6
2017-07-22T02:25:12.891Z,18.6
2017-07-22T02:26:12.593Z,18.6
2017-07-22T02:27:11.809Z,18.6
2017-07-22T02:28:10.896Z,18.7
2017-07-22T02:28:41.414Z,18.7
2017-07-22T02:29:11.929Z,18.6
2017-07-22T02:29:42.446Z,18.6
2017-07-22T02:31:09.342Z,18.6
2017-07-22T02:32:08.550Z,18.6
2017-07-22T02:33:07.766Z,18.6
2017-07-22T02:34:07.345Z,18.6
2017-07-22T02:35:06.429Z,18.6
2017-07-22T02:36:05.627Z,18.6
2017-07-22T02:37:05.098Z,18.6
2017-07-22T02:38:04.304Z,18.6
2017-07-22T02:39:03.889Z,18.6
2017-07-22T02:40:13.603Z,18.6
2017-07-22T02:42:01.642Z,18.7
2017-07-22T02:43:01.343Z,18.6
2017-07-22T02:44:00.419Z,18.6
2017-07-22T02:44:59.619Z,18.6
2017-07-22T02:45:59.080Z,18.6
2017-07-22T02:46:58.297Z,18.6
2017-07-22T02:47:28.813Z,18.6
2017-07-22T02:47:59.095Z,18.6
2017-07-22T02:48:29.373Z,18.6
2017-07-22T02:49:56.537Z,18.6
2017-07-22T02:50:55.732Z,18.6
2017-07-22T02:52:54.324Z,18.6
2017-07-22T02:53:54.031Z,18.6
2017-07-22T02:54:53.225Z,18.6
2017-07-22T02:55:52.424Z,18.6
2017-07-22T02:56:52.130Z,18.6
2017-07-22T02:57:51.215Z,18.6
2017-07-22T02:58:21.617Z,18.6
2017-07-22T02:58:52.129Z,18.6
2017-07-22T02:59:22.648Z,18.6
2017-07-22T02:59:53.175Z,18.5
2017-07-22T03:00:23.563Z,18.5
2017-07-22T03:01:48.445Z,18.6
2017-07-22T03:03:47.032Z,18.5
2017-07-22T03:04:46.734Z,18.6
2017-07-22T03:05:45.928Z,18.5
2017-07-22T03:06:45.519Z,18.5
2017-07-22T03:07:44.602Z,18.5
2017-07-22T03:08:43.696Z,18.5
2017-07-22T03:09:43.398Z,18.5
2017-07-22T03:10:13.909Z,18.5
2017-07-22T03:11:41.795Z,18.5
2017-07-22T03:12:41.501Z,18.5
2017-07-22T03:13:40.704Z,18.5
2017-07-22T03:14:39.899Z,18.5
2017-07-22T03:15:39.113Z,18.5
2017-07-22T03:16:38.822Z,18.5
2017-07-22T03:17:37.897Z,18.5
2017-07-22T03:18:37.490Z,18.5
2017-07-22T03:19:36.696Z,18.5
2017-07-22T03:20:35.763Z,18.5
2017-07-22T03:21:35.468Z,18.5
2017-07-22T03:22:34.667Z,18.5
2017-07-22T03:23:33.751Z,18.5
2017-07-22T03:24:33.326Z,18.5
2017-07-22T03:25:32.417Z,18.5
2017-07-22T03:26:32.130Z,18.5
2017-07-22T03:27:30.979Z,18.5
2017-07-22T03:28:30.678Z,18.5
2017-07-22T03:29:29.881Z,18.5
2017-07-22T03:30:29.344Z,18.5
2017-07-22T03:30:59.864Z,18.5
2017-07-22T03:31:30.384Z,18.5
2017-07-22T03:32:27.964Z,18.5
2017-07-22T03:33:27.168Z,18.5
2017-07-22T03:34:26.876Z,18.5
2017-07-22T03:35:26.087Z,18.5
2017-07-22T03:36:25.183Z,18.5
2017-07-22T03:37:24.877Z,18.5
2017-07-22T03:38:24.082Z,18.5
2017-07-22T03:39:23.436Z,18.5
2017-07-22T03:41:22.024Z,18.6
2017-07-22T03:42:21.231Z,18.6
2017-07-22T03:43:20.941Z,18.6
2017-07-22T03:44:20.144Z,18.6
2017-07-22T03:45:19.349Z,18.6
2017-07-22T03:46:18.559Z,18.6
2017-07-22T03:47:18.144Z,18.6
2017-07-22T03:48:17.235Z,18.6
2017-07-22T03:49:16.942Z,18.6
2017-07-22T03:50:16.147Z,18.6
2017-07-22T03:51:15.230Z,18.6
2017-07-22T03:52:14.936Z,18.6
2017-07-22T03:53:14.140Z,18.7
2017-07-22T03:54:13.333Z,18.7
2017-07-22T03:55:12.544Z,18.7
2017-07-22T03:55:43.055Z,18.7
2017-07-22T03:56:13.582Z,18.7
2017-07-22T03:56:44.104Z,18.7
2017-07-22T03:57:14.604Z,18.6
2017-07-22T03:57:45.106Z,18.6
2017-07-22T03:59:09.849Z,18.6
2017-07-22T04:00:09.440Z,18.6
2017-07-22T04:01:08.523Z,18.6
2017-07-22T04:02:08.098Z,18.5
2017-07-22T04:03:07.053Z,18.5
2017-07-22T04:04:06.752Z,18.5
2017-07-22T04:05:05.854Z,18.4
2017-07-22T04:05:36.357Z,18.4
2017-07-22T04:06:06.746Z,18.4
2017-07-22T04:06:37.262Z,18.4
2017-07-22T04:07:07.778Z,18.4
2017-07-22T04:07:38.171Z,18.4
2017-07-22T04:08:08.689Z,18.3
2017-07-22T04:08:39.202Z,18.3
2017-07-22T04:10:02.572Z,18.2
2017-07-22T04:11:02.040Z,18.2
2017-07-22T04:12:01.240Z,18.2
2017-07-22T04:13:00.819Z,18.2
2017-07-22T04:13:59.907Z,18.2
2017-07-22T04:14:59.607Z,18.1
2017-07-22T04:15:58.835Z,18.2
2017-07-22T04:16:58.037Z,18.2
2017-07-22T04:17:57.117Z,18.1
2017-07-22T04:18:56.818Z,18.1
2017-07-22T04:19:27.204Z,18.1
2017-07-22T04:19:57.717Z,18.1
2017-07-22T04:20:55.416Z,18.1
2017-07-22T04:21:54.608Z,18.1
2017-07-22T04:22:54.075Z,18.1
2017-07-22T04:23:53.278Z,18
2017-07-22T04:24:52.877Z,18
2017-07-22T04:25:23.272Z,18
2017-07-22T04:26:51.668Z,18
2017-07-22T04:27:50.638Z,18
2017-07-22T04:28:50.224Z,18
2017-07-22T04:29:49.427Z,18
2017-07-22T04:30:48.511Z,17.9
2017-07-22T04:31:48.210Z,17.9
2017-07-22T04:32:47.315Z,17.9
2017-07-22T04:33:46.506Z,17.9
2017-07-22T04:34:46.199Z,17.9
2017-07-22T04:35:45.390Z,17.9
2017-07-22T04:36:15.923Z,17.9
2017-07-22T04:36:46.440Z,17.9
2017-07-22T04:37:16.841Z,17.9
2017-07-22T04:37:47.229Z,17.9
2017-07-22T04:38:17.619Z,17.9
2017-07-22T04:38:48.164Z,17.9
2017-07-22T04:39:18.676Z,17.9
2017-07-22T04:40:42.033Z,17.9
2017-07-22T04:41:41.126Z,17.9
2017-07-22T04:42:40.713Z,17.9
2017-07-22T04:43:39.912Z,17.9
2017-07-22T04:44:39.611Z,17.9
2017-07-22T04:45:38.693Z,17.9
2017-07-22T04:46:38.161Z,17.9
2017-07-22T04:47:08.684Z,17.9
2017-07-22T04:47:39.195Z,17.8
2017-07-22T04:48:09.601Z,17.8
2017-07-22T04:48:40.006Z,17.8
2017-07-22T04:49:10.525Z,17.8
2017-07-22T04:49:41.026Z,17.9
2017-07-22T04:50:11.530Z,17.9
2017-07-22T04:51:34.525Z,17.9
2017-07-22T04:52:34.239Z,17.8
2017-07-22T04:53:33.452Z,17.9
2017-07-22T04:54:32.651Z,17.9
2017-07-22T04:55:31.618Z,17.9
2017-07-22T04:56:31.224Z,17.9
2017-07-22T04:57:30.316Z,17.9
2017-07-22T04:58:29.904Z,17.9
2017-07-22T04:59:29.491Z,17.9
2017-07-22T05:00:28.697Z,17.8
2017-07-22T05:01:27.887Z,17.9
2017-07-22T05:02:26.965Z,17.9
2017-07-22T05:03:26.658Z,17.9
2017-07-22T05:04:25.870Z,17.9
2017-07-22T05:05:25.086Z,17.9
2017-07-22T05:06:24.665Z,17.9
2017-07-22T05:07:23.861Z,17.9
2017-07-22T05:08:23.067Z,17.9
2017-07-22T05:09:22.759Z,17.9
2017-07-22T05:10:21.948Z,17.9
2017-07-22T05:11:20.900Z,17.9
2017-07-22T05:12:20.612Z,17.9
2017-07-22T05:13:19.808Z,17.9
2017-07-22T05:14:19.007Z,17.9
2017-07-22T05:15:18.591Z,17.9
2017-07-22T05:16:17.792Z,18
2017-07-22T05:17:16.988Z,18
2017-07-22T05:18:16.570Z,18
2017-07-22T05:19:15.637Z,18.1
2017-07-22T05:19:46.016Z,18.1
2017-07-22T05:20:16.413Z,18.1
2017-07-22T05:21:14.603Z,18.1
2017-07-22T05:22:13.693Z,18.1
2017-07-22T05:23:13.394Z,18.2
2017-07-22T05:24:12.582Z,18.2
2017-07-22T05:25:11.659Z,18.2
2017-07-22T05:26:11.358Z,18.2
2017-07-22T05:27:10.553Z,18.2
2017-07-22T05:28:10.033Z,18.2
2017-07-22T05:29:09.133Z,18.2
2017-07-22T05:30:08.339Z,18.2
2017-07-22T05:31:07.538Z,18.2
2017-07-22T05:32:07.116Z,18.1
2017-07-22T05:33:06.219Z,18.1
2017-07-22T05:34:05.574Z,18.1
2017-07-22T05:35:05.268Z,18.1
2017-07-22T05:36:04.352Z,18.2
2017-07-22T05:37:03.559Z,18.2
2017-07-22T05:38:03.023Z,18.1
2017-07-22T05:39:02.617Z,18.1
2017-07-22T05:40:01.821Z,18.2
2017-07-22T05:41:01.042Z,18.2
2017-07-22T05:42:00.231Z,18.2
2017-07-22T05:42:59.934Z,18.2
2017-07-22T05:43:59.135Z,18.2
2017-07-22T05:44:58.335Z,18.2
2017-07-22T05:45:28.752Z,18.2
2017-07-22T05:45:59.261Z,18.3
2017-07-22T05:46:29.670Z,18.3
2017-07-22T05:47:00.193Z,18.2
2017-07-22T05:47:30.713Z,18.2
2017-07-22T05:48:55.461Z,18.3
2017-07-22T05:49:55.156Z,18.3
2017-07-22T05:50:54.248Z,18.4
2017-07-22T05:51:53.468Z,18.4
2017-07-22T05:52:53.061Z,18.4
2017-07-22T05:53:52.158Z,18.4
2017-07-22T05:54:51.872Z,18.4
2017-07-22T05:55:22.257Z,18.4
2017-07-22T05:55:52.772Z,18.4
2017-07-22T05:56:23.290Z,18.4
2017-07-22T05:56:53.821Z,18.4
2017-07-22T05:57:24.209Z,18.4
2017-07-22T05:58:49.096Z,18.4
2017-07-22T05:59:48.287Z,18.4
2017-07-22T06:00:47.485Z,18.4
2017-07-22T06:02:46.069Z,18.4
2017-07-22T06:03:45.753Z,18.4
2017-07-22T06:04:44.954Z,18.4
2017-07-22T06:05:44.193Z,18.5
2017-07-22T06:06:43.412Z,18.5
2017-07-22T06:07:43.000Z,18.5
2017-07-22T06:08:42.201Z,18.5
2017-07-22T06:09:41.413Z,18.5
2017-07-22T06:10:41.128Z,18.5
2017-07-22T06:11:40.212Z,18.5
2017-07-22T06:12:39.411Z,18.5
2017-07-22T06:13:38.886Z,18.5
2017-07-22T06:14:38.475Z,18.5
2017-07-22T06:15:08.979Z,18.5
2017-07-22T06:16:36.872Z,18.5
2017-07-22T06:17:36.070Z,18.5
2017-07-22T06:18:35.652Z,18.5
2017-07-22T06:19:34.855Z,18.5
2017-07-22T06:20:34.063Z,18.5
2017-07-22T06:21:33.759Z,18.5
2017-07-22T06:22:32.960Z,18.5
2017-07-22T06:23:32.178Z,18.5
2017-07-22T06:24:31.897Z,18.5
2017-07-22T06:25:02.427Z,18.5
2017-07-22T06:25:32.832Z,18.5
2017-07-22T06:26:03.343Z,18.5
2017-07-22T06:26:33.862Z,18.5
2017-07-22T06:27:04.254Z,18.5
2017-07-22T06:27:34.764Z,18.5
2017-07-22T06:28:05.292Z,18.5
2017-07-22T06:28:35.686Z,18.5
2017-07-22T06:29:06.200Z,18.5
2017-07-22T06:30:27.533Z,18.5
2017-07-22T06:31:27.231Z,18.5
2017-07-22T06:32:26.445Z,18.6
2017-07-22T06:33:25.657Z,18.6
2017-07-22T06:34:24.865Z,18.6
2017-07-22T06:35:24.565Z,18.7
2017-07-22T06:36:23.658Z,18.7
2017-07-22T06:36:54.161Z,18.7
2017-07-22T06:37:24.671Z,18.7
2017-07-22T06:37:55.187Z,18.7
2017-07-22T06:38:25.702Z,18.7
2017-07-22T06:38:56.208Z,18.7
2017-07-22T06:40:21.087Z,18.7
2017-07-22T06:41:20.560Z,18.8
2017-07-22T06:42:19.644Z,18.8
2017-07-22T06:43:19.232Z,18.8
2017-07-22T06:44:18.313Z,18.9
2017-07-22T06:45:17.513Z,18.9
2017-07-22T06:46:17.120Z,19
2017-07-22T06:47:16.202Z,19
2017-07-22T06:48:15.906Z,19
2017-07-22T06:49:14.879Z,19
2017-07-22T06:50:14.589Z,19.1
2017-07-22T06:51:13.940Z,19.2
2017-07-22T06:52:13.024Z,19.2
2017-07-22T06:53:12.099Z,19.3
2017-07-22T06:54:11.687Z,19.3
2017-07-22T06:55:10.881Z,19.3
2017-07-22T06:56:10.580Z,19.3
2017-07-22T06:57:09.779Z,19.4
2017-07-22T06:57:40.294Z,19.4
2017-07-22T06:58:10.805Z,19.4
2017-07-22T06:59:08.485Z,19.4
2017-07-22T07:00:07.677Z,19.5
2017-07-22T07:01:07.385Z,19.5
2017-07-22T07:02:06.466Z,19.5
2017-07-22T07:03:05.674Z,19.5
2017-07-22T07:04:05.382Z,19.6
2017-07-22T07:05:04.577Z,19.6
2017-07-22T07:06:03.794Z,19.6
2017-07-22T07:07:03.486Z,19.7
2017-07-22T07:08:02.561Z,19.7
2017-07-22T07:08:33.078Z,19.7
2017-07-22T07:10:01.359Z,19.8
2017-07-22T07:11:00.572Z,19.9
2017-07-22T07:12:00.274Z,19.9
2017-07-22T07:12:59.467Z,19.9
2017-07-22T07:13:58.432Z,19.9
2017-07-22T07:14:58.149Z,20
2017-07-22T07:15:57.503Z,20
2017-07-22T07:16:56.471Z,20
2017-07-22T07:17:56.332Z,20.1
2017-07-22T07:19:54.802Z,20.1
2017-07-22T07:20:53.990Z,20.2
2017-07-22T07:21:53.704Z,20.2
2017-07-22T07:22:52.923Z,20.3
2017-07-22T07:23:52.383Z,20.3
2017-07-22T07:24:22.899Z,20.3
2017-07-22T07:25:50.790Z,20.4
2017-07-22T07:26:50.380Z,20.4
2017-07-22T07:27:49.976Z,20.5
2017-07-22T07:28:49.060Z,20.6
2017-07-22T07:29:48.542Z,20.6
2017-07-22T07:30:47.966Z,20.6
2017-07-22T07:31:47.051Z,20.7
2017-07-22T07:32:46.768Z,20.7
2017-07-22T07:33:45.957Z,20.8
2017-07-22T07:34:16.353Z,20.8
2017-07-22T07:34:46.854Z,20.8
2017-07-22T07:35:17.243Z,20.8
2017-07-22T07:36:44.008Z,20.9
2017-07-22T07:37:43.212Z,20.9
2017-07-22T07:38:42.916Z,20.9
2017-07-22T07:39:42.125Z,21
2017-07-22T07:40:41.314Z,21
2017-07-22T07:41:41.013Z,21
2017-07-22T07:42:40.217Z,21
2017-07-22T07:43:39.419Z,21
2017-07-22T07:44:38.887Z,21
2017-07-22T07:45:38.463Z,21.1
2017-07-22T07:46:08.862Z,21.1
2017-07-22T07:47:37.256Z,21.1
2017-07-22T07:48:36.726Z,21.1
2017-07-22T07:49:35.927Z,21.2
2017-07-22T07:50:35.143Z,21.2
2017-07-22T07:51:34.727Z,21.2
2017-07-22T07:52:33.817Z,21.2
2017-07-22T07:53:33.406Z,21.3
2017-07-22T07:54:32.605Z,21.3
2017-07-22T07:55:32.314Z,21.3
2017-07-22T07:56:31.521Z,21.3
2017-07-22T07:57:30.726Z,21.4
2017-07-22T07:58:30.309Z,21.4
2017-07-22T07:59:29.894Z,21.4
2017-07-22T08:00:28.987Z,21.4
2017-07-22T08:01:28.692Z,21.4
2017-07-22T08:02:27.902Z,21.4
2017-07-22T08:03:27.486Z,21.4
2017-07-22T08:04:26.573Z,21.4
2017-07-22T08:04:57.084Z,21.4
2017-07-22T08:05:27.488Z,21.4
2017-07-22T08:05:57.881Z,21.4
2017-07-22T08:07:24.756Z,21.4
2017-07-22T08:08:24.469Z,21.4
2017-07-22T08:09:23.432Z,21.4
2017-07-22T08:10:23.018Z,21.4
2017-07-22T08:11:22.209Z,21.4
2017-07-22T08:12:21.799Z,21.4
2017-07-22T08:13:20.996Z,21.4
2017-07-22T08:14:20.693Z,21.4
2017-07-22T08:14:51.218Z,21.4
2017-07-22T08:15:21.719Z,21.4
2017-07-22T08:15:52.120Z,21.4
2017-07-22T08:16:22.636Z,21.4
2017-07-22T08:16:53.038Z,21.4
2017-07-22T08:17:23.552Z,21.4
2017-07-22T08:17:53.952Z,21.4
2017-07-22T08:18:24.348Z,21.4
2017-07-22T08:18:54.737Z,21.4
2017-07-22T08:20:16.973Z,21.4
2017-07-22T08:21:16.557Z,21.4
2017-07-22T08:22:15.640Z,21.4
2017-07-22T08:23:15.360Z,21.4
2017-07-22T08:24:14.563Z,21.4
2017-07-22T08:25:13.778Z,21.4
2017-07-22T08:26:13.479Z,21.4
2017-07-22T08:27:12.835Z,21.4
2017-07-22T08:27:43.239Z,21.4
2017-07-22T08:28:13.750Z,21.4
2017-07-22T08:28:43.905Z,21.4
2017-07-22T08:30:10.676Z,21.3
2017-07-22T08:31:10.376Z,21.3
2017-07-22T08:32:09.582Z,21.3
2017-07-22T08:33:09.316Z,21.3
2017-07-22T08:34:08.399Z,21.3
2017-07-22T08:35:07.992Z,21.3
2017-07-22T08:36:07.079Z,21.3
2017-07-22T08:37:06.661Z,21.3
2017-07-22T08:38:05.862Z,21.3
2017-07-22T08:39:05.442Z,21.3
2017-07-22T08:40:04.526Z,21.2
2017-07-22T08:41:04.240Z,21.2
2017-07-22T08:42:03.314Z,21.1
2017-07-22T08:43:02.896Z,21.1
2017-07-22T08:44:02.484Z,21.1
2017-07-22T08:45:01.689Z,21.1
2017-07-22T08:46:01.285Z,21.1
2017-07-22T08:47:00.499Z,21.1
2017-07-22T08:47:31.019Z,21.1
2017-07-22T08:48:01.540Z,21.1
2017-07-22T08:48:31.833Z,21.1
2017-07-22T08:49:02.338Z,21.1
2017-07-22T08:49:32.739Z,21.1
2017-07-22T08:50:03.140Z,21.1
2017-07-22T08:50:58.316Z,21.1
2017-07-22T08:52:56.901Z,21.1
2017-07-22T08:53:56.617Z,21.1
2017-07-22T08:54:55.810Z,21.1
2017-07-22T08:55:54.900Z,21.1
2017-07-22T08:56:54.623Z,21.1
2017-07-22T08:57:53.823Z,21.1
2017-07-22T08:58:24.223Z,21.1
2017-07-22T08:58:54.399Z,21.1
2017-07-22T08:59:24.912Z,21.1
2017-07-22T08:59:55.319Z,21.1
2017-07-22T09:00:52.389Z,21.1
2017-07-22T09:01:51.364Z,21.1
2017-07-22T09:02:51.069Z,21.1
2017-07-22T09:03:50.266Z,21.1
2017-07-22T09:04:49.971Z,21.1
2017-07-22T09:05:49.167Z,21.1
2017-07-22T09:06:48.387Z,21.1
2017-07-22T09:07:48.080Z,21.1
2017-07-22T09:08:47.288Z,21.1
2017-07-22T09:09:46.265Z,21.1
2017-07-22T09:10:46.356Z,21.2
2017-07-22T09:11:45.559Z,21.2
2017-07-22T09:12:44.763Z,21.2
2017-07-22T09:13:44.466Z,21.2
2017-07-22T09:15:43.063Z,21.2
2017-07-22T09:16:42.271Z,21.2
2017-07-22T09:17:41.860Z,21.2
2017-07-22T09:18:41.055Z,21.2
2017-07-22T09:19:40.762Z,21.2
2017-07-22T09:20:39.835Z,21.2
2017-07-22T09:21:39.559Z,21.2
2017-07-22T09:22:38.757Z,21.3
2017-07-22T09:23:38.217Z,21.3
2017-07-22T09:24:37.808Z,21.3
2017-07-22T09:25:08.222Z,21.3
2017-07-22T09:25:38.642Z,21.3
2017-07-22T09:26:09.163Z,21.3
2017-07-22T09:26:39.439Z,21.4
2017-07-22T09:27:09.839Z,21.4
2017-07-22T09:27:40.347Z,21.4
2017-07-22T09:28:35.520Z,21.4
2017-07-22T09:29:34.721Z,21.4
2017-07-22T09:30:33.810Z,21.4
2017-07-22T09:31:33.518Z,21.4
2017-07-22T09:32:33.103Z,21.5
2017-07-22T09:33:32.333Z,21.5
2017-07-22T09:34:31.925Z,21.5
2017-07-22T09:35:31.130Z,21.5
2017-07-22T09:36:30.591Z,21.5
2017-07-22T09:37:29.701Z,21.6
2017-07-22T09:38:29.281Z,21.6
2017-07-22T09:39:28.499Z,21.7
2017-07-22T09:40:28.205Z,21.7
2017-07-22T09:41:27.419Z,21.7
2017-07-22T09:42:27.001Z,21.7
2017-07-22T09:43:26.209Z,21.8
2017-07-22T09:44:25.898Z,21.8
2017-07-22T09:44:56.431Z,21.8
2017-07-22T09:45:26.950Z,21.9
2017-07-22T09:46:24.641Z,21.9
2017-07-22T09:47:23.833Z,21.9
2017-07-22T09:48:23.431Z,21.9
2017-07-22T09:49:22.639Z,21.9
2017-07-22T09:50:22.362Z,21.9
2017-07-22T09:51:21.563Z,21.9
2017-07-22T09:52:20.761Z,21.9
2017-07-22T09:53:20.497Z,22
2017-07-22T09:54:19.700Z,22
2017-07-22T09:54:50.206Z,22
2017-07-22T09:55:20.727Z,22
2017-07-22T09:55:51.135Z,22
2017-07-22T09:56:21.531Z,22
2017-07-22T09:56:51.934Z,22
2017-07-22T09:57:22.437Z,22
2017-07-22T09:57:52.942Z,22
2017-07-22T10:00:16.186Z,22.1
2017-07-22T10:01:15.378Z,22.1
2017-07-22T10:02:15.080Z,22.1
2017-07-22T10:03:14.283Z,22.1
2017-07-22T10:04:13.995Z,22.1
2017-07-22T10:05:13.090Z,22.1
2017-07-22T10:05:43.606Z,22.1
2017-07-22T10:06:13.995Z,22.1
2017-07-22T10:06:44.381Z,22.1
2017-07-22T10:07:14.889Z,22.1
2017-07-22T10:07:45.275Z,22.1
2017-07-22T10:08:15.847Z,22.1
2017-07-22T10:08:46.248Z,22.1
2017-07-22T10:09:16.782Z,22.1
2017-07-22T10:09:47.296Z,22.1
2017-07-22T10:11:09.665Z,22
2017-07-22T10:12:09.377Z,22.1
2017-07-22T10:13:08.469Z,22.1
2017-07-22T10:14:07.950Z,22
2017-07-22T10:15:07.551Z,22
2017-07-22T10:16:07.025Z,22
2017-07-22T10:17:06.253Z,22
2017-07-22T10:18:05.442Z,22
2017-07-22T10:19:04.928Z,21.9
2017-07-22T10:19:35.442Z,21.9
2017-07-22T10:20:05.862Z,21.9
2017-07-22T10:22:03.329Z,21.9
2017-07-22T10:23:02.921Z,21.8
2017-07-22T10:24:02.000Z,21.8
2017-07-22T10:25:01.586Z,21.8
2017-07-22T10:27:00.179Z,21.7
2017-07-22T10:27:59.652Z,21.7
2017-07-22T10:28:59.245Z,21.7
2017-07-22T10:29:58.458Z,21.7
2017-07-22T10:30:58.061Z,21.7
2017-07-22T10:31:57.272Z,21.7
2017-07-22T10:32:56.976Z,21.7
2017-07-22T10:33:56.189Z,21.7
2017-07-22T10:34:55.783Z,21.6
2017-07-22T10:35:54.748Z,21.6
2017-07-22T10:36:54.354Z,21.6
2017-07-22T10:37:53.932Z,21.6
2017-07-22T10:38:24.441Z,21.6
2017-07-22T10:38:55.012Z,21.5
2017-07-22T10:39:25.524Z,21.5
2017-07-22T10:40:51.773Z,21.6
2017-07-22T10:41:51.465Z,21.6
2017-07-22T10:42:51.184Z,21.6
2017-07-22T10:43:50.272Z,21.6
2017-07-22T10:44:49.857Z,21.6
2017-07-22T10:45:49.333Z,21.7
2017-07-22T10:46:48.817Z,21.6
2017-07-22T10:47:48.167Z,21.6
2017-07-22T10:48:47.377Z,21.6
2017-07-22T10:49:17.672Z,21.6
2017-07-22T10:50:46.103Z,21.6
2017-07-22T10:51:45.809Z,21.7
2017-07-22T10:52:44.876Z,21.7
2017-07-22T10:53:44.573Z,21.7
2017-07-22T10:54:43.651Z,21.7
2017-07-22T10:55:43.348Z,21.7
2017-07-22T10:56:42.551Z,21.7
2017-07-22T10:57:42.253Z,21.7
2017-07-22T10:58:41.451Z,21.8
2017-07-22T11:00:40.543Z,21.7
2017-07-22T11:01:39.626Z,21.7
2017-07-22T11:02:39.209Z,21.7
2017-07-22T11:03:38.410Z,21.7
2017-07-22T11:04:37.991Z,21.7
2017-07-22T11:05:08.156Z,21.7
2017-07-22T11:05:39.047Z,21.7
2017-07-22T11:06:09.302Z,21.7
2017-07-22T11:06:39.811Z,21.7
2017-07-22T11:07:35.996Z,21.7
2017-07-22T11:09:35.095Z,21.7
2017-07-22T11:10:34.304Z,21.7
2017-07-22T11:11:34.020Z,21.7
2017-07-22T11:12:33.119Z,21.7
2017-07-22T11:13:32.711Z,21.7
2017-07-22T11:14:32.179Z,21.7
2017-07-22T11:15:31.152Z,21.8
2017-07-22T11:16:01.558Z,21.8
2017-07-22T11:17:30.456Z,21.8
2017-07-22T11:18:29.674Z,21.8
2017-07-22T11:19:28.871Z,21.8
2017-07-22T11:20:28.570Z,21.8
2017-07-22T11:21:27.781Z,21.9
2017-07-22T11:22:27.373Z,21.9
2017-07-22T11:23:26.583Z,21.9
2017-07-22T11:24:26.166Z,21.9
2017-07-22T11:25:25.248Z,21.9
2017-07-22T11:26:24.824Z,21.9
2017-07-22T11:27:24.064Z,22
2017-07-22T11:28:23.774Z,22
2017-07-22T11:29:23.239Z,22
2017-07-22T11:30:22.824Z,22
2017-07-22T11:31:21.892Z,22
2017-07-22T11:32:21.621Z,21.9
2017-07-22T11:33:20.716Z,22
2017-07-22T11:34:20.197Z,22
2017-07-22T11:35:19.664Z,21.9
2017-07-22T11:35:50.184Z,21.9
2017-07-22T11:37:18.460Z,22
2017-07-22T11:38:18.161Z,22
2017-07-22T11:39:17.386Z,22
2017-07-22T11:40:16.978Z,22
2017-07-22T11:41:16.205Z,22
2017-07-22T11:42:15.398Z,22
2017-07-22T11:43:15.102Z,21.9
2017-07-22T11:44:14.289Z,22
2017-07-22T11:45:13.872Z,22
2017-07-22T11:45:44.382Z,22
2017-07-22T11:46:14.900Z,22
2017-07-22T11:46:45.426Z,22
2017-07-22T11:47:15.820Z,22
2017-07-22T11:47:46.231Z,22
2017-07-22T11:48:16.734Z,22
2017-07-22T11:48:47.259Z,22
2017-07-22T11:49:17.773Z,22
2017-07-22T11:49:48.296Z,22
2017-07-22T11:51:09.911Z,22.1
2017-07-22T11:52:09.512Z,22.1
2017-07-22T11:53:09.087Z,22.2
2017-07-22T11:54:08.301Z,22.2
2017-07-22T11:55:08.004Z,22.2
2017-07-22T11:56:07.203Z,22.2
2017-07-22T11:57:06.908Z,22.3
2017-07-22T11:57:37.192Z,22.3
2017-07-22T11:58:07.695Z,22.3
2017-07-22T11:58:38.086Z,22.3
2017-07-22T11:59:08.593Z,22.4
2017-07-22T11:59:39.099Z,22.4
2017-07-22T12:01:04.478Z,22.4
2017-07-22T12:02:03.674Z,22.4
2017-07-22T12:03:03.379Z,22.4
2017-07-22T12:04:02.590Z,22.4
2017-07-22T12:05:02.184Z,22.5
2017-07-22T12:06:01.404Z,22.5
2017-07-22T12:07:01.114Z,22.4
2017-07-22T12:08:00.322Z,22.5
2017-07-22T12:08:59.914Z,22.5
2017-07-22T12:09:58.990Z,22.4
2017-07-22T12:10:58.692Z,22.4
2017-07-22T12:11:57.776Z,22.4
2017-07-22T12:12:57.353Z,22.3
2017-07-22T12:13:57.050Z,22.3